Aviation Digital Data Service (ADDS)

Output produced by METARs form (0518 UTC 25 May 2018)
found at http://www.aviationweather.gov/adds/metars/
 
GMAD 250500Z 19005KT 150V230 9999 SCT023 15/13 Q1015 NOSIG
TAF GMAD 250500Z 2506/2612 20006KT 8000 SCT020 
     BECMG 2512/2514 28012KT 
     BECMG 2518/2521 20005KT
       
GMFO 250400Z VRB02KT 9999 FEW010 SCT023 14/13 Q1014 NOSIG
TAF GMFO 242300Z 2500/2606 35006KT 6000 SCT006 SCT233 
     PROB30 
     TEMPO 2423/2508 30004KT 1200 BR BKN003 
     BECMG 2514/2518 32017KT 9999 SCT020 SCT233 
     PROB30 
     TEMPO 2523/2606 32004KT 2000 BR BKN006
       
GMMW 250500Z 26002KT 9999 FEW020 BKN040 16/13 Q1013 NOSIG
TAF GMMW 242300Z 2500/2606 VRB02KT 8000 SCT016 BKN080 
     BECMG 2508/2511 36008KT
       
GMFM 250500Z 00000KT 6000 FEW013 SCT016 14/13 Q1015 NOSIG
TAF GMFM 250500Z 2506/2612 VRB02KT 6000 FEW013 BKN016 
     BECMG 2510/2512 6000 SCT016 
     TEMPO 2514/2520 22010KT 8000 SCT020 SCT100
       
GMTA 250000Z 18002KT 8000 FEW016 BKN100 20/17 Q1013 NOSIG
TAF GMTA 242300Z 2500/2606 VRB02KT 7000 SCT016 BKN026 BKN100 
     BECMG 2509/2512 36010KT SCT016 BKN030 
     BECMG 2520/2522 VRB02KT
       
TAF GMMI 242300Z 2500/2606 VRB02KT 8000 BKN010 
     BECMG 2510/2512 30008KT SCT016 BKN030 
     BECMG 2522/2524 BKN013 SCT060
       
GMAD 250500Z 19005KT 150V230 9999 SCT023 15/13 Q1015 NOSIG
TAF GMAD 250500Z 2506/2612 20006KT 8000 SCT020 
     BECMG 2512/2514 28012KT 
     BECMG 2518/2521 20005KT
       
GMFF 250500Z 31003KT 3000 BR BKN006 BKN016 15/15 Q1016 NOSIG
TAF GMFF 250500Z 2506/2612 32004KT 3000 BR BKN004 BKN016 BECMB 2511/2515 8000 NSW SCT013 BKN026 
     BECMG 2601/2605 3000 BR OVC006
       
GMFK 250500Z VRB02KT CAVOK 16/01 Q1013 NOSIG
GMFM 250500Z 00000KT 6000 FEW013 SCT016 14/13 Q1015 NOSIG
TAF GMFM 250500Z 2506/2612 VRB02KT 6000 FEW013 BKN016 
     BECMG 2510/2512 6000 SCT016 
     TEMPO 2514/2520 22010KT 8000 SCT020 SCT100
       
GMFO 250400Z VRB02KT 9999 FEW010 SCT023 14/13 Q1014 NOSIG
TAF GMFO 242300Z 2500/2606 35006KT 6000 SCT006 SCT233 
     PROB30 
     TEMPO 2423/2508 30004KT 1200 BR BKN003 
     BECMG 2514/2518 32017KT 9999 SCT020 SCT233 
     PROB30 
     TEMPO 2523/2606 32004KT 2000 BR BKN006
       
GMMB 250500Z AUTO 17006KT //// R32/P2000N NCD 14/14 Q1016 NOSIG
GMMD 250200Z AUTO 20010KT //// // ////// 14/12 Q1016 NOSIG
GMME 250500Z 19004KT 8000 SCT013 SCT020 15/12 Q1014 NOSIG
TAF GMME 250500Z 2506/2612 18010KT 8000 BKN013 BKN016 
     BECMG 2510/2512 34012KT SCT013 
     BECMG 2522/2524 16004KT 
     PROB30 
     TEMPO 2600/2606 3000 BR BKN010 
     BECMG 2608/2610 34012KT
       
TAF GMMH 242300Z 2500/2606 36020KT 8000 FEW010 
     BECMG 2508/2510 CAVOK
       
TAF GMMI 242300Z 2500/2606 VRB02KT 8000 BKN010 
     BECMG 2510/2512 30008KT SCT016 BKN030 
     BECMG 2522/2524 BKN013 SCT060
       
GMML 250500Z 36004KT 8000 SCT017 15/14 Q1017 NOSIG
TAF GMML 242300Z 2500/2606 02010KT 8000 SCT020 
     BECMG 2511/2513 CAVOK
       
GMMN 250500Z 19004KT 9999 BKN016 14/14 Q1015 NOSIG
TAF GMMN 250500Z 2506/2612 20006KT 9999 BKN020 
     BECMG 2511/2514 30015KT 
     BECMG 2519/2521 20005KT 8000 SCT016
       
GMMW 250500Z 26002KT 9999 FEW020 BKN040 16/13 Q1013 NOSIG
TAF GMMW 242300Z 2500/2606 VRB02KT 8000 SCT016 BKN080 
     BECMG 2508/2511 36008KT
       
GMMX 250500Z 24003KT 9999 BKN020 13/11 Q1015 NOSIG
TAF GMMX 242300Z 2500/2606 24005KT 8000 BKN020 
     BECMG 2510/2513 32015KT SCT026
       
GMMZ 250500Z VRB01KT CAVOK 13/03 Q1013 NOSIG
TAF GMMZ 250500Z 2506/2612 VRB02KT CAVOK 
     TEMPO 2516/2519 23016KT
       
GMTA 250000Z 18002KT 8000 FEW016 BKN100 20/17 Q1013 NOSIG
TAF GMTA 242300Z 2500/2606 VRB02KT 7000 SCT016 BKN026 BKN100 
     BECMG 2509/2512 36010KT SCT016 BKN030 
     BECMG 2520/2522 VRB02KT
       
GMTN 250500Z 11003KT 080V140 9999 SCT030 15/09 Q1013 NOSIG
GMTT 250500Z 19007KT 8000 SCT016 15/12 Q1014 NOSIG
TAF GMTT 241700Z 2418/2524 24006KT 9999 SCT020 
     TEMPO 2508/2512 30012KT 4000 RA
       
GMTT 250500Z 19007KT 8000 SCT016 15/12 Q1014 NOSIG
TAF GMTT 241700Z 2418/2524 24006KT 9999 SCT020 
     TEMPO 2508/2512 30012KT 4000 RA
       
GMMX 250500Z 24003KT 9999 BKN020 13/11 Q1015 NOSIG
TAF GMMX 242300Z 2500/2606 24005KT 8000 BKN020 
     BECMG 2510/2513 32015KT SCT026
       
GMMN 250500Z 19004KT 9999 BKN016 14/14 Q1015 NOSIG
TAF GMMN 250500Z 2506/2612 20006KT 9999 BKN020 
     BECMG 2511/2514 30015KT 
     BECMG 2519/2521 20005KT 8000 SCT016
       
GMFK 250500Z VRB02KT CAVOK 16/01 Q1013 NOSIG
GMMZ 250500Z VRB01KT CAVOK 13/03 Q1013 NOSIG
TAF GMMZ 250500Z 2506/2612 VRB02KT CAVOK 
     TEMPO 2516/2519 23016KT
       
GMFF 250500Z 31003KT 3000 BR BKN006 BKN016 15/15 Q1016 NOSIG
TAF GMFF 250500Z 2506/2612 32004KT 3000 BR BKN004 BKN016 BECMB 2511/2515 8000 NSW SCT013 BKN026 
     BECMG 2601/2605 3000 BR OVC006
       
GMME 250500Z 19004KT 8000 SCT013 SCT020 15/12 Q1014 NOSIG
TAF GMME 250500Z 2506/2612 18010KT 8000 BKN013 BKN016 
     BECMG 2510/2512 34012KT SCT013 
     BECMG 2522/2524 16004KT 
     PROB30 
     TEMPO 2600/2606 3000 BR BKN010 
     BECMG 2608/2610 34012KT
       
GMTN 250500Z 11003KT 080V140 9999 SCT030 15/09 Q1013 NOSIG